Strona główna
METAR-TAF:

METAR-TAF

Lotnisko :

Port lotniczy Mauritius

Mauritius, Mauritius

Szerokość geograficzna: 20-26S, Długość geograficzna: 057-40E, wysokość: 55 m

Aktualna obserwacja pogody

Raport powstał 10 minut temu, godzina 17:00 UTC
Wiatr 7 kt od wschód
Temperatura 24°C
Wilgotność 78%
Ciśnienie 1019 hPa
Widzialność 10 km lub więcej
Rozproszone chmury na wysokości 1700 ft

METAR: FIMP 171700Z 08007KT 9999 SCT017 24/20 Q1019

czas: 21:10 (17:10 UTC)

Prognoza

Raport powstał 6 godziny i 5 minut temu, godzina 11:05 UTC
Prognoza ważna od 17 godzina 12 UTC do 18 godzina 18 UTC
Wiatr 12 kt od wschód
Widzialność 10 km lub więcej
Rozproszone chmury na wysokości 1700 ft
Przejściowo
od 17 godzina 17 UTC do 18 godzina 00 UTC
Widzialność: 7000 m
Przerywane chmury na wysokości 1600 ft
słaby przelotny opad deszczu

TAF: FIMP 171105Z 1712/1818 09012KT 9999 SCT017 TEMPO 1717/1800 7000 -SHRA BKN016

Obserwacja i prognoza pogody dla ponad 4000 lotnisk (raport METAR i TAF).

Dostępne stacje oznaczono żółtymi i czerwonymi punktami na mapie.

Najedź kursorem aby zobaczyć nazwę stacji.

Kliknij aby zobaczyć obserwacje i prognozy pogody.

Aby zmienić mapę: kliknij na zielony przycisk z czarnym krzyżykiem, aby powiększyć; na zielony przycisk z myślnikiem, aby pomniejszyć; na zielone strzałki, aby przejść do map sąsiednich.


METAR-TAF: